map of XMN home
XMN - Airport
Location
City:  Xiamen, Fujian, China
Name:Gaoqi International Airport
ICAO:ZSAM
IATA:XMN

Details
Type:Airport (Aerodrome, Airfield)
Use:Public/Civil, International (customs port of entry)
Latitude:2433'N (24.545)
Longitude:11808'E (118.127)
Elevation:59 ft (18 m)
Variation:3.99W (WMM2015 magnetic declination)
-0.08 annual change
Runways:1
Longest:11155 × 148 ft (3400 × 45 m), paved

Time
Time Zone:UTC+8
Local Time:

Weather
METAR:ZSAM 180600Z 03004MPS 350V070 CAVOK 19/08 Q1022 BECMG TL0740 10005MPS

Related Locations
Nearby:
Farthest:LLS: 12362 mi / 19895 km
Las Lomitas [Alferez Armando Rodriguez], P, AR

Find:

   beyond  
but within

Other Information
Maps:
NOTAMs:
Links:
Sources:

  
  • flag of China
  

Airport Diagram

Airport diagram for XMN

Airport diagram PDF

Sectional Chart

Flight Planning
at skyvector.com

Satellite Image

Google Maps Satellite view

 

Copyright © 2004-2019 Karl L. Swartz. All rights reserved.
The Great Circle Mapper name and logo are trademarks of the Great Circle Mapper.
All other trademarks mentioned herein belong to their respective owners.
Please see credits for attibutions and further copyright information.

  Follow gcmap on Facebook Follow gcmap on Twitter Follow gcmap on Google+ GCmap on LinkedIn

hCard Microformat

Geo Microformat